SBCG/CGR METAR and TAF weather

Enter ICAO airport designator
Station Type Date Time Source
SBCG METAR 2019/04/20 22:00 UTC NOAA

SBCG 202200Z VRB02KT 9999 FEW045 27/22 Q1012


Station Type Date Time Source
SBCG Decoded METAR 2019/04/20 22:00 UTC NOAA

Campo Grande Aeroporto , Brazil (SBCG) 20-28S 054-40W 567M
Apr 20, 2019 - 06:00 PM EDT / 2019.04.20 2200 UTC
Wind: Variable at 2 MPH (2 KT):0
Visibility: greater than 7 mile(s):0
Sky conditions: mostly clear
Temperature: 80 F (27 C)
Dew Point: 71 F (22 C)
Relative Humidity: 74%
Pressure (altimeter): 29.88 in. Hg (1012 hPa)
ob: SBCG 202200Z VRB02KT 9999 FEW045 27/22 Q1012
cycle: 22

Station Type Date Time Source
SBCG TAF 2019/04/20 18:09 UTC NOAA

TAF TAF SBCG 201530Z 2018/2118 34007KT 9999 SCT045 FEW050TCU TX32/2018Z T N22/2108Z
BECMG 2022/2024 02005KT CAVOK
BECMG 2113/2115 33010KT 9999 SCT035 RM K PDW

Example: see airport list